Weather at Priest River Municipal Airport

Public forecast

Using degrees Fahrenheit for public forecast. Weather courtesy of forecast.io.

Closest aviation weather report (METAR) to Priest River Municipal Airport

Closest report is Sandpoint Airport, 15.4 nm (28.6 km) ENE. Retrieved 2020/09/23 06:35 UTC (0 seconds ago):

KSZT 230635Z AUTO 03003KT 10SM CLR 12/07 A3001 RMK AO2

Closest aviation forecast (TAF) to Priest River Municipal Airport

Closest forecast is Coeur D'Alene - Pappy Boyington Field, 25.2 nm (46.7 km) S. Retrieved 2020/09/23 06:22 UTC (0 seconds ago):

TAF KCOE 230520Z 2306/2406 VRB05KT P6SM FEW100 SCT180 FM231800 18010KT P6SM BKN150 FM232100 21011G17KT P6SM BKN120 OVC150 FM240500 22014KT P6SM -RA OVC100